sensor_id;sensor_type;location;lat;lon;timestamp;pressure;altitude;pressure_sealevel;temperature;humidity
43161;BME280;40968;52.342;5.528;2024-02-23T00:01:06;98240.69;;;2.08;98.73
43161;BME280;40968;52.342;5.528;2024-02-23T00:03:34;98338.44;;;2.74;98.58
43161;BME280;40968;52.342;5.528;2024-02-23T00:06:01;98328.94;;;2.72;98.16
43161;BME280;40968;52.342;5.528;2024-02-23T00:08:28;98164.44;;;1.59;97.90
43161;BME280;40968;52.342;5.528;2024-02-23T00:10:56;98412.13;;;3.23;96.63
43161;BME280;40968;52.342;5.528;2024-02-23T00:13:22;98451.34;;;3.50;96.40
43161;BME280;40968;52.342;5.528;2024-02-23T00:15:49;98301.13;;;2.45;95.90
43161;BME280;40968;52.342;5.528;2024-02-23T00:18:17;98377.16;;;3.08;96.08
43161;BME280;40968;52.342;5.528;2024-02-23T00:20:43;98384.88;;;2.99;96.26
43161;BME280;40968;52.342;5.528;2024-02-23T00:23:10;98585.59;;;4.36;95.89
43161;BME280;40968;52.342;5.528;2024-02-23T00:25:37;98528.16;;;4.04;95.72
43161;BME280;40968;52.342;5.528;2024-02-23T00:28:06;98581.44;;;4.43;95.57
43161;BME280;40968;52.342;5.528;2024-02-23T00:30:33;98358.19;;;3.03;95.33
43161;BME280;40968;52.342;5.528;2024-02-23T00:32:59;98348.31;;;3.05;95.26
43161;BME280;40968;52.342;5.528;2024-02-23T00:35:26;98595.94;;;4.60;95.35
43161;BME280;40968;52.342;5.528;2024-02-23T00:37:52;98368.25;;;3.09;94.68
43161;BME280;40968;52.342;5.528;2024-02-23T00:40:19;98596.25;;;4.67;94.42
43161;BME280;40968;52.342;5.528;2024-02-23T00:42:45;98377.38;;;3.37;94.24
43161;BME280;40968;52.342;5.528;2024-02-23T00:45:15;98413.97;;;3.43;94.55
43161;BME280;40968;52.342;5.528;2024-02-23T00:47:42;98320.16;;;3.04;94.62
43161;BME280;40968;52.342;5.528;2024-02-23T00:50:09;98302.66;;;2.91;94.19
43161;BME280;40968;52.342;5.528;2024-02-23T00:52:37;98625.25;;;4.79;94.04
43161;BME280;40968;52.342;5.528;2024-02-23T00:55:04;98404.19;;;3.44;93.31
43161;BME280;40968;52.342;5.528;2024-02-23T00:57:30;98410.91;;;3.48;92.49
43161;BME280;40968;52.342;5.528;2024-02-23T00:59:57;98345.16;;;3.11;91.98
43161;BME280;40968;52.342;5.528;2024-02-23T01:02:25;98634.19;;;4.88;92.11
43161;BME280;40968;52.342;5.528;2024-02-23T01:04:52;98389.50;;;3.19;91.93
43161;BME280;40968;52.342;5.528;2024-02-23T01:07:22;98323.81;;;2.91;91.49
43161;BME280;40968;52.342;5.528;2024-02-23T01:09:48;98409.47;;;3.44;91.68
43161;BME280;40968;52.342;5.528;2024-02-23T01:12:15;98627.31;;;4.55;91.78
43161;BME280;40968;52.342;5.528;2024-02-23T01:14:41;98655.19;;;4.91;91.98
43161;BME280;40968;52.342;5.528;2024-02-23T01:17:08;98427.38;;;3.52;91.55
43161;BME280;40968;52.342;5.528;2024-02-23T01:19:36;98669.16;;;4.93;92.10
43161;BME280;40968;52.342;5.528;2024-02-23T01:22:03;98605.09;;;4.56;92.18
43161;BME280;40968;52.342;5.528;2024-02-23T01:24:29;98478.03;;;3.79;92.27
43161;BME280;40968;52.342;5.528;2024-02-23T01:26:56;98431.91;;;3.40;92.08
43161;BME280;40968;52.342;5.528;2024-02-23T01:29:23;98380.84;;;3.17;92.19
43161;BME280;40968;52.342;5.528;2024-02-23T01:31:50;98677.84;;;4.95;92.13
43161;BME280;40968;52.342;5.528;2024-02-23T01:34:17;98424.44;;;3.34;91.98
43161;BME280;40968;52.342;5.528;2024-02-23T01:36:45;98560.81;;;4.25;92.10
43161;BME280;40968;52.342;5.528;2024-02-23T01:39:12;98682.16;;;4.96;92.27
43161;BME280;40968;52.342;5.528;2024-02-23T01:41:38;98686.50;;;4.97;92.08
43161;BME280;40968;52.342;5.528;2024-02-23T01:44:05;98631.84;;;4.64;91.81
43161;BME280;40968;52.342;5.528;2024-02-23T01:46:32;98391.59;;;3.04;91.52
43161;BME280;40968;52.342;5.528;2024-02-23T01:48:59;98566.75;;;4.18;91.75
43161;BME280;40968;52.342;5.528;2024-02-23T01:51:26;98497.50;;;3.69;91.50
43161;BME280;40968;52.342;5.528;2024-02-23T01:53:53;98710.16;;;5.01;91.66
43161;BME280;40968;52.342;5.528;2024-02-23T01:56:20;98711.34;;;4.96;91.55
43161;BME280;40968;52.342;5.528;2024-02-23T01:58:47;98539.84;;;3.80;91.13
43161;BME280;40968;52.342;5.528;2024-02-23T02:01:14;98715.25;;;4.92;91.18
43161;BME280;40968;52.342;5.528;2024-02-23T02:03:41;98724.72;;;4.85;90.19
43161;BME280;40968;52.342;5.528;2024-02-23T02:06:09;98518.25;;;3.52;89.14
43161;BME280;40968;52.342;5.528;2024-02-23T02:08:36;98707.69;;;4.67;89.60
43161;BME280;40968;52.342;5.528;2024-02-23T02:11:04;98529.13;;;3.49;89.19
43161;BME280;40968;52.342;5.528;2024-02-23T02:13:31;98677.44;;;4.37;89.19
43161;BME280;40968;52.342;5.528;2024-02-23T02:16:00;98667.59;;;4.27;88.92
43161;BME280;40968;52.342;5.528;2024-02-23T02:18:27;98718.84;;;4.49;88.79
43161;BME280;40968;52.342;5.528;2024-02-23T02:20:55;98746.78;;;4.64;88.76
43161;BME280;40968;52.342;5.528;2024-02-23T02:23:23;98705.53;;;4.39;88.21
43161;BME280;40968;52.342;5.528;2024-02-23T02:25:52;98417.69;;;2.64;86.99
43161;BME280;40968;52.342;5.528;2024-02-23T02:28:20;98702.28;;;4.36;87.36
43161;BME280;40968;52.342;5.528;2024-02-23T02:30:48;98752.81;;;4.67;87.17
43161;BME280;40968;52.342;5.528;2024-02-23T02:33:15;98464.75;;;2.93;86.87
43161;BME280;40968;52.342;5.528;2024-02-23T02:35:41;98495.44;;;2.96;86.77
43161;BME280;40968;52.342;5.528;2024-02-23T02:38:08;98450.97;;;2.67;86.31
43161;BME280;40968;52.342;5.528;2024-02-23T02:40:35;98497.13;;;2.97;86.48
43161;BME280;40968;52.342;5.528;2024-02-23T02:43:01;98526.81;;;3.12;86.90
43161;BME280;40968;52.342;5.528;2024-02-23T02:45:29;98767.19;;;4.53;87.42
43161;BME280;40968;52.342;5.528;2024-02-23T02:47:56;98785.91;;;4.51;88.09
43161;BME280;40968;52.342;5.528;2024-02-23T02:50:23;98757.47;;;4.42;87.39
43161;BME280;40968;52.342;5.528;2024-02-23T02:52:49;98662.84;;;3.66;87.72
43161;BME280;40968;52.342;5.528;2024-02-23T02:55:16;98779.94;;;4.26;88.03
43161;BME280;40968;52.342;5.528;2024-02-23T02:57:43;98778.50;;;4.22;88.56
43161;BME280;40968;52.342;5.528;2024-02-23T03:00:11;98728.34;;;3.87;88.95
43161;BME280;40968;52.342;5.528;2024-02-23T03:02:39;98724.13;;;3.84;89.34
43161;BME280;40968;52.342;5.528;2024-02-23T03:05:06;98744.31;;;3.96;89.88
43161;BME280;40968;52.342;5.528;2024-02-23T03:07:33;98724.25;;;3.83;90.74
43161;BME280;40968;52.342;5.528;2024-02-23T03:09:59;98718.47;;;3.77;92.03
43161;BME280;40968;52.342;5.528;2024-02-23T03:12:26;98700.28;;;3.61;93.05
43161;BME280;40968;52.342;5.528;2024-02-23T03:14:52;98561.81;;;2.81;93.49
43161;BME280;40968;52.342;5.528;2024-02-23T03:17:21;98757.78;;;4.16;94.01
43161;BME280;40968;52.342;5.528;2024-02-23T03:19:49;98535.38;;;2.81;94.16
43161;BME280;40968;52.342;5.528;2024-02-23T03:22:16;98520.00;;;2.75;94.34
43161;BME280;40968;52.342;5.528;2024-02-23T03:24:42;98558.94;;;2.96;94.48
43161;BME280;40968;52.342;5.528;2024-02-23T03:27:09;98540.19;;;2.88;94.52
43161;BME280;40968;52.342;5.528;2024-02-23T03:29:38;98745.28;;;4.07;94.40
43161;BME280;40968;52.342;5.528;2024-02-23T03:32:05;98672.69;;;3.64;94.22
43161;BME280;40968;52.342;5.528;2024-02-23T03:34:32;98718.31;;;3.90;93.90
43161;BME280;40968;52.342;5.528;2024-02-23T03:37:00;98690.16;;;3.67;93.56
43161;BME280;40968;52.342;5.528;2024-02-23T03:39:27;98683.44;;;3.62;93.29
43161;BME280;40968;52.342;5.528;2024-02-23T03:41:54;98568.09;;;2.92;93.15
43161;BME280;40968;52.342;5.528;2024-02-23T03:44:21;98530.56;;;2.64;92.95
43161;BME280;40968;52.342;5.528;2024-02-23T03:46:48;98812.84;;;4.35;93.43
43161;BME280;40968;52.342;5.528;2024-02-23T03:49:14;98622.31;;;3.09;93.12
43161;BME280;40968;52.342;5.528;2024-02-23T03:51:41;98548.63;;;2.70;93.13
43161;BME280;40968;52.342;5.528;2024-02-23T03:54:09;98833.06;;;4.36;93.03
43161;BME280;40968;52.342;5.528;2024-02-23T03:56:39;98630.16;;;3.10;92.71
43161;BME280;40968;52.342;5.528;2024-02-23T03:59:06;98827.88;;;4.35;92.68
43161;BME280;40968;52.342;5.528;2024-02-23T04:01:35;98809.94;;;4.27;92.40
43161;BME280;40968;52.342;5.528;2024-02-23T04:04:01;98487.44;;;2.29;92.20
43161;BME280;40968;52.342;5.528;2024-02-23T04:06:28;98618.38;;;3.03;92.28
43161;BME280;40968;52.342;5.528;2024-02-23T04:08:54;98598.28;;;2.78;92.12
43161;BME280;40968;52.342;5.528;2024-02-23T04:11:22;98759.28;;;3.86;92.00
43161;BME280;40968;52.342;5.528;2024-02-23T04:13:49;98754.97;;;3.74;92.22
43161;BME280;40968;52.342;5.528;2024-02-23T04:16:15;98845.41;;;4.26;91.90
43161;BME280;40968;52.342;5.528;2024-02-23T04:18:42;98575.44;;;2.54;91.85
43161;BME280;40968;52.342;5.528;2024-02-23T04:21:09;98842.84;;;4.24;92.05
43161;BME280;40968;52.342;5.528;2024-02-23T04:23:35;98836.09;;;4.20;91.72
43161;BME280;40968;52.342;5.528;2024-02-23T04:26:02;98800.84;;;3.97;91.74
43161;BME280;40968;52.342;5.528;2024-02-23T04:28:30;98715.00;;;3.43;91.78
43161;BME280;40968;52.342;5.528;2024-02-23T04:30:58;98876.38;;;4.14;91.75
43161;BME280;40968;52.342;5.528;2024-02-23T04:33:25;98837.47;;;3.92;91.85
43161;BME280;40968;52.342;5.528;2024-02-23T04:35:52;98854.44;;;4.12;91.94
43161;BME280;40968;52.342;5.528;2024-02-23T04:38:18;98619.66;;;2.63;91.88
43161;BME280;40968;52.342;5.528;2024-02-23T04:40:45;98657.69;;;2.85;91.91
43161;BME280;40968;52.342;5.528;2024-02-23T04:43:12;98624.22;;;2.61;91.95
43161;BME280;40968;52.342;5.528;2024-02-23T04:45:40;98635.63;;;2.62;92.05
43161;BME280;40968;52.342;5.528;2024-02-23T04:48:07;98844.31;;;3.83;92.32
43161;BME280;40968;52.342;5.528;2024-02-23T04:50:34;98894.19;;;4.01;92.40
43161;BME280;40968;52.342;5.528;2024-02-23T04:53:00;98740.72;;;3.18;92.27
43161;BME280;40968;52.342;5.528;2024-02-23T04:55:27;98711.59;;;2.95;92.27
43161;BME280;40968;52.342;5.528;2024-02-23T04:57:53;98513.00;;;1.71;92.05
43161;BME280;40968;52.342;5.528;2024-02-23T05:00:21;98806.38;;;3.48;92.18
43161;BME280;40968;52.342;5.528;2024-02-23T05:02:49;98651.50;;;2.51;92.40
43161;BME280;40968;52.342;5.528;2024-02-23T05:05:16;98589.03;;;2.14;92.40
43161;BME280;40968;52.342;5.528;2024-02-23T05:07:42;98705.56;;;2.82;92.55
43161;BME280;40968;52.342;5.528;2024-02-23T05:10:09;98850.09;;;3.77;92.62
43161;BME280;40968;52.342;5.528;2024-02-23T05:12:36;98899.50;;;4.01;92.81
43161;BME280;40968;52.342;5.528;2024-02-23T05:15:03;98844.91;;;3.64;93.04
43161;BME280;40968;52.342;5.528;2024-02-23T05:17:30;98639.81;;;2.42;92.77
43161;BME280;40968;52.342;5.528;2024-02-23T05:19:58;98890.72;;;4.00;92.88
43161;BME280;40968;52.342;5.528;2024-02-23T05:22:24;98633.56;;;2.43;92.87
43161;BME280;40968;52.342;5.528;2024-02-23T05:24:51;98854.94;;;3.83;93.19
43161;BME280;40968;52.342;5.528;2024-02-23T05:27:17;98889.50;;;4.04;93.04
43161;BME280;40968;52.342;5.528;2024-02-23T05:29:44;98885.03;;;4.05;92.86
43161;BME280;40968;52.342;5.528;2024-02-23T05:32:11;98640.44;;;2.57;92.83
43161;BME280;40968;52.342;5.528;2024-02-23T05:34:37;98618.41;;;2.45;92.65
43161;BME280;40968;52.342;5.528;2024-02-23T05:37:05;98897.13;;;4.09;92.92
43161;BME280;40968;52.342;5.528;2024-02-23T05:39:32;98886.72;;;4.06;92.97
43161;BME280;40968;52.342;5.528;2024-02-23T05:41:58;98717.50;;;2.99;92.80
43161;BME280;40968;52.342;5.528;2024-02-23T05:44:25;98883.38;;;4.04;92.82
43161;BME280;40968;52.342;5.528;2024-02-23T05:46:52;98642.88;;;2.60;92.69
43161;BME280;40968;52.342;5.528;2024-02-23T05:49:19;98622.75;;;2.46;92.80
43161;BME280;40968;52.342;5.528;2024-02-23T05:51:45;98860.47;;;4.03;92.80
43161;BME280;40968;52.342;5.528;2024-02-23T05:54:13;98360.69;;;0.89;92.65
43161;BME280;40968;52.342;5.528;2024-02-23T05:56:40;98567.16;;;2.12;92.60
43161;BME280;40968;52.342;5.528;2024-02-23T05:59:06;98613.50;;;2.40;92.54
43161;BME280;40968;52.342;5.528;2024-02-23T06:01:33;98570.78;;;2.22;92.78
43161;BME280;40968;52.342;5.528;2024-02-23T06:03:59;98528.66;;;1.96;92.83
43161;BME280;40968;52.342;5.528;2024-02-23T06:06:26;98655.97;;;2.61;92.60
43161;BME280;40968;52.342;5.528;2024-02-23T06:08:53;98639.63;;;2.68;92.68
43161;BME280;40968;52.342;5.528;2024-02-23T06:11:21;98900.69;;;4.19;92.66
43161;BME280;40968;52.342;5.528;2024-02-23T06:13:47;98622.25;;;2.41;92.30
43161;BME280;40968;52.342;5.528;2024-02-23T06:16:14;98508.22;;;1.76;92.31
43161;BME280;40968;52.342;5.528;2024-02-23T06:18:41;98784.31;;;3.37;92.33
43161;BME280;40968;52.342;5.528;2024-02-23T06:21:12;98835.16;;;3.64;92.08
43161;BME280;40968;52.342;5.528;2024-02-23T06:23:39;98898.31;;;4.16;91.99
43161;BME280;40968;52.342;5.528;2024-02-23T06:26:06;98857.59;;;3.94;92.04
43161;BME280;40968;52.342;5.528;2024-02-23T06:28:34;98802.88;;;3.48;92.00
43161;BME280;40968;52.342;5.528;2024-02-23T06:31:02;98796.03;;;3.57;91.97
43161;BME280;40968;52.342;5.528;2024-02-23T06:33:30;98558.03;;;2.16;91.67
43161;BME280;40968;52.342;5.528;2024-02-23T06:35:57;98660.09;;;2.77;91.81
43161;BME280;40968;52.342;5.528;2024-02-23T06:38:23;98794.94;;;3.59;91.73
43161;BME280;40968;52.342;5.528;2024-02-23T06:40:51;98884.44;;;4.24;91.69
43161;BME280;40968;52.342;5.528;2024-02-23T06:43:17;98604.03;;;2.49;91.23
43161;BME280;40968;52.342;5.528;2024-02-23T06:45:45;98567.84;;;2.03;90.92
43161;BME280;40968;52.342;5.528;2024-02-23T06:48:12;98704.75;;;3.04;90.92
43161;BME280;40968;52.342;5.528;2024-02-23T06:50:38;98905.41;;;4.27;91.02
43161;BME280;40968;52.342;5.528;2024-02-23T06:53:07;98865.16;;;3.99;90.79
43161;BME280;40968;52.342;5.528;2024-02-23T06:55:34;98616.75;;;2.44;90.53
43161;BME280;40968;52.342;5.528;2024-02-23T06:58:01;98843.09;;;3.76;90.25
43161;BME280;40968;52.342;5.528;2024-02-23T07:00:30;98678.38;;;2.91;89.90
43161;BME280;40968;52.342;5.528;2024-02-23T07:02:58;98675.88;;;2.90;89.40
43161;BME280;40968;52.342;5.528;2024-02-23T07:05:26;98805.44;;;3.72;89.06
43161;BME280;40968;52.342;5.528;2024-02-23T07:07:53;98640.84;;;2.75;88.53
43161;BME280;40968;52.342;5.528;2024-02-23T07:10:20;98625.44;;;2.69;88.70
43161;BME280;40968;52.342;5.528;2024-02-23T07:12:48;98878.41;;;4.33;88.03
43161;BME280;40968;52.342;5.528;2024-02-23T07:15:14;98903.09;;;4.45;87.87
43161;BME280;40968;52.342;5.528;2024-02-23T07:17:41;98916.13;;;4.48;88.07
43161;BME280;40968;52.342;5.528;2024-02-23T07:20:10;98901.66;;;4.41;87.96
43161;BME280;40968;52.342;5.528;2024-02-23T07:22:37;98918.69;;;4.50;87.41
43161;BME280;40968;52.342;5.528;2024-02-23T07:25:04;98633.75;;;2.75;86.98
43161;BME280;40968;52.342;5.528;2024-02-23T07:27:31;98792.53;;;3.68;86.66
43161;BME280;40968;52.342;5.528;2024-02-23T07:29:58;98780.50;;;3.75;86.66
43161;BME280;40968;52.342;5.528;2024-02-23T07:32:25;98785.19;;;3.83;86.67
43161;BME280;40968;52.342;5.528;2024-02-23T07:34:52;98910.09;;;4.57;86.32
43161;BME280;40968;52.342;5.528;2024-02-23T07:37:20;98888.97;;;4.56;86.22
43161;BME280;40968;52.342;5.528;2024-02-23T07:39:46;98906.09;;;4.63;86.11
43161;BME280;40968;52.342;5.528;2024-02-23T07:42:13;98847.31;;;4.24;85.65
43161;BME280;40968;52.342;5.528;2024-02-23T07:44:39;98734.25;;;3.68;85.34
43161;BME280;40968;52.342;5.528;2024-02-23T07:47:06;98892.09;;;4.72;85.67
43161;BME280;40968;52.342;5.528;2024-02-23T07:49:33;98880.38;;;4.75;85.14
43161;BME280;40968;52.342;5.528;2024-02-23T07:51:59;98764.31;;;4.01;84.82
43161;BME280;40968;52.342;5.528;2024-02-23T07:54:27;98852.06;;;4.64;84.44
43161;BME280;40968;52.342;5.528;2024-02-23T07:56:54;98885.91;;;4.83;84.14
43161;BME280;40968;52.342;5.528;2024-02-23T07:59:20;98878.66;;;4.85;84.04
43161;BME280;40968;52.342;5.528;2024-02-23T08:01:47;98705.09;;;3.79;83.77
43161;BME280;40968;52.342;5.528;2024-02-23T08:04:14;98763.91;;;4.28;83.81
43161;BME280;40968;52.342;5.528;2024-02-23T08:06:41;98880.69;;;4.93;83.83
43161;BME280;40968;52.342;5.528;2024-02-23T08:09:08;98843.81;;;4.78;84.02
43161;BME280;40968;52.342;5.528;2024-02-23T08:11:36;98585.97;;;3.22;84.05
43161;BME280;40968;52.342;5.528;2024-02-23T08:14:02;98659.22;;;3.67;84.30
43161;BME280;40968;52.342;5.528;2024-02-23T08:16:29;98739.56;;;4.23;84.44
43161;BME280;40968;52.342;5.528;2024-02-23T08:18:56;98869.94;;;4.94;84.46
43161;BME280;40968;52.342;5.528;2024-02-23T08:21:22;98867.28;;;4.94;84.46
43161;BME280;40968;52.342;5.528;2024-02-23T08:23:49;98664.28;;;3.70;84.33
43161;BME280;40968;52.342;5.528;2024-02-23T08:26:15;98544.53;;;3.00;84.18
43161;BME280;40968;52.342;5.528;2024-02-23T08:28:43;98503.28;;;2.75;84.38
43161;BME280;40968;52.342;5.528;2024-02-23T08:31:10;98818.75;;;4.71;84.13
43161;BME280;40968;52.342;5.528;2024-02-23T08:33:36;98744.50;;;4.27;83.98
43161;BME280;40968;52.342;5.528;2024-02-23T08:36:04;98859.78;;;5.00;83.65
43161;BME280;40968;52.342;5.528;2024-02-23T08:38:31;98595.59;;;3.46;83.56
43161;BME280;40968;52.342;5.528;2024-02-23T08:40:57;98769.72;;;4.54;83.63
43161;BME280;40968;52.342;5.528;2024-02-23T08:43:24;98633.09;;;3.74;82.61
43161;BME280;40968;52.342;5.528;2024-02-23T08:45:52;98855.00;;;5.14;82.43
43161;BME280;40968;52.342;5.528;2024-02-23T08:48:18;98815.56;;;4.89;82.19
43161;BME280;40968;52.342;5.528;2024-02-23T08:50:45;98547.00;;;3.24;81.88
43161;BME280;40968;52.342;5.528;2024-02-23T08:53:12;98808.22;;;4.81;81.96
43161;BME280;40968;52.342;5.528;2024-02-23T08:55:38;98802.19;;;4.79;81.65
43161;BME280;40968;52.342;5.528;2024-02-23T08:58:05;98627.53;;;3.77;81.99
43161;BME280;40968;52.342;5.528;2024-02-23T09:00:32;98743.13;;;4.44;82.16
43161;BME280;40968;52.342;5.528;2024-02-23T09:03:00;98824.41;;;4.99;82.25
43161;BME280;40968;52.342;5.528;2024-02-23T09:05:26;98861.88;;;5.17;82.31
43161;BME280;40968;52.342;5.528;2024-02-23T09:07:54;98869.16;;;5.15;82.47
43161;BME280;40968;52.342;5.528;2024-02-23T09:10:20;98860.19;;;5.16;83.12
43161;BME280;40968;52.342;5.528;2024-02-23T09:12:47;98775.97;;;4.53;83.46
43161;BME280;40968;52.342;5.528;2024-02-23T09:15:13;98826.34;;;4.76;84.10
43161;BME280;40968;52.342;5.528;2024-02-23T09:17:40;98863.75;;;5.05;84.36
43161;BME280;40968;52.342;5.528;2024-02-23T09:20:10;98866.78;;;5.01;84.96
43161;BME280;40968;52.342;5.528;2024-02-23T09:22:37;98577.47;;;3.19;84.95
43161;BME280;40968;52.342;5.528;2024-02-23T09:25:05;98845.94;;;4.85;86.08
43161;BME280;40968;52.342;5.528;2024-02-23T09:27:33;98573.25;;;3.05;86.06
43161;BME280;40968;52.342;5.528;2024-02-23T09:30:02;98602.34;;;3.27;86.28
43161;BME280;40968;52.342;5.528;2024-02-23T09:32:29;98833.63;;;4.62;87.02
43161;BME280;40968;52.342;5.528;2024-02-23T09:34:55;98711.69;;;3.96;87.32
43161;BME280;40968;52.342;5.528;2024-02-23T09:37:23;98851.16;;;4.86;87.63
43161;BME280;40968;52.342;5.528;2024-02-23T09:39:50;98876.69;;;4.98;87.84
43161;BME280;40968;52.342;5.528;2024-02-23T09:42:16;98868.72;;;4.98;87.54
43161;BME280;40968;52.342;5.528;2024-02-23T09:44:44;98835.25;;;4.75;87.69
43161;BME280;40968;52.342;5.528;2024-02-23T09:47:12;98877.16;;;5.04;88.03
43161;BME280;40968;52.342;5.528;2024-02-23T09:49:40;98619.16;;;3.49;87.95
43161;BME280;40968;52.342;5.528;2024-02-23T09:52:08;98379.28;;;1.92;87.95
43161;BME280;40968;52.342;5.528;2024-02-23T09:54:36;98856.94;;;4.91;87.67
43161;BME280;40968;52.342;5.528;2024-02-23T09:57:06;98894.78;;;5.05;87.88
43161;BME280;40968;52.342;5.528;2024-02-23T09:59:33;98611.22;;;3.38;87.28
43161;BME280;40968;52.342;5.528;2024-02-23T10:02:01;98635.66;;;3.53;87.64
43161;BME280;40968;52.342;5.528;2024-02-23T10:04:29;98631.19;;;3.53;87.41
43161;BME280;40968;52.342;5.528;2024-02-23T10:06:56;98805.41;;;4.61;87.40
43161;BME280;40968;52.342;5.528;2024-02-23T10:09:23;98639.97;;;3.65;87.71
43161;BME280;40968;52.342;5.528;2024-02-23T10:11:53;98887.66;;;5.26;87.24
43161;BME280;40968;52.342;5.528;2024-02-23T10:14:20;98853.53;;;5.01;86.40
43161;BME280;40968;52.342;5.528;2024-02-23T10:16:46;98595.66;;;3.67;86.75
43161;BME280;40968;52.342;5.528;2024-02-23T10:19:13;98888.72;;;5.56;86.36
43161;BME280;40968;52.342;5.528;2024-02-23T10:21:40;98826.97;;;5.22;85.61
43161;BME280;40968;52.342;5.528;2024-02-23T10:24:07;98893.53;;;5.62;84.66
43161;BME280;40968;52.342;5.528;2024-02-23T10:26:33;98773.25;;;4.76;84.09
43161;BME280;40968;52.342;5.528;2024-02-23T10:29:01;98861.50;;;5.43;84.52
43161;BME280;40968;52.342;5.528;2024-02-23T10:31:30;98771.53;;;4.86;84.45
43161;BME280;40968;52.342;5.528;2024-02-23T10:34:02;98826.91;;;5.12;84.55
43161;BME280;40968;52.342;5.528;2024-02-23T10:36:36;98755.91;;;4.72;84.31
43161;BME280;40968;52.342;5.528;2024-02-23T10:39:05;98900.84;;;5.70;84.47
43161;BME280;40968;52.342;5.528;2024-02-23T10:41:34;98664.22;;;4.25;84.24
43161;BME280;40968;52.342;5.528;2024-02-23T10:44:03;98405.19;;;2.67;84.05
43161;BME280;40968;52.342;5.528;2024-02-23T10:46:31;98912.78;;;5.76;84.18
43161;BME280;40968;52.342;5.528;2024-02-23T10:48:58;98844.38;;;5.36;83.61
43161;BME280;40968;52.342;5.528;2024-02-23T10:51:25;98858.34;;;5.49;83.58
43161;BME280;40968;52.342;5.528;2024-02-23T10:53:52;98680.56;;;4.42;83.44
43161;BME280;40968;52.342;5.528;2024-02-23T10:56:19;98842.28;;;5.51;84.45
43161;BME280;40968;52.342;5.528;2024-02-23T10:58:47;98785.19;;;5.24;84.07
43161;BME280;40968;52.342;5.528;2024-02-23T11:01:16;98665.47;;;4.63;83.47
43161;BME280;40968;52.342;5.528;2024-02-23T11:03:44;98867.38;;;5.89;83.33
43161;BME280;40968;52.342;5.528;2024-02-23T11:06:15;98661.28;;;4.61;82.75
43161;BME280;40968;52.342;5.528;2024-02-23T11:08:46;98933.41;;;6.36;82.33
43161;BME280;40968;52.342;5.528;2024-02-23T11:11:12;98886.25;;;6.07;82.54
43161;BME280;40968;52.342;5.528;2024-02-23T11:13:44;98847.78;;;5.90;82.63
43161;BME280;40968;52.342;5.528;2024-02-23T11:16:10;98879.47;;;6.24;81.83
43161;BME280;40968;52.342;5.528;2024-02-23T11:18:39;98894.56;;;6.23;81.46
43161;BME280;40968;52.342;5.528;2024-02-23T11:21:09;98933.13;;;6.70;80.63
43161;BME280;40968;52.342;5.528;2024-02-23T11:23:40;98885.53;;;6.36;80.81
43161;BME280;40968;52.342;5.528;2024-02-23T11:26:09;98887.22;;;6.37;79.80
43161;BME280;40968;52.342;5.528;2024-02-23T11:28:48;98887.03;;;6.28;79.30
43161;BME280;40968;52.342;5.528;2024-02-23T11:31:16;98948.41;;;6.77;79.70
43161;BME280;40968;52.342;5.528;2024-02-23T11:33:50;98913.44;;;6.51;79.24
43161;BME280;40968;52.342;5.528;2024-02-23T11:36:24;98862.25;;;6.38;79.43
43161;BME280;40968;52.342;5.528;2024-02-23T11:38:54;98773.13;;;5.72;78.94
43161;BME280;40968;52.342;5.528;2024-02-23T11:41:22;98885.84;;;6.52;79.06
43161;BME280;40968;52.342;5.528;2024-02-23T11:43:50;98785.78;;;5.89;78.56
43161;BME280;40968;52.342;5.528;2024-02-23T11:46:17;98924.16;;;6.90;78.00
43161;BME280;40968;52.342;5.528;2024-02-23T11:48:44;98962.50;;;7.09;78.27
43161;BME280;40968;52.342;5.528;2024-02-23T11:51:13;98963.31;;;7.09;77.61
43161;BME280;40968;52.342;5.528;2024-02-23T11:53:39;98505.91;;;4.16;75.96
43161;BME280;40968;52.342;5.528;2024-02-23T11:56:06;98726.78;;;5.64;75.98
43161;BME280;40968;52.342;5.528;2024-02-23T11:58:33;98993.59;;;6.99;76.01
43161;BME280;40968;52.342;5.528;2024-02-23T12:01:00;98966.97;;;6.99;76.48
43161;BME280;40968;52.342;5.528;2024-02-23T12:03:28;98843.13;;;6.13;77.09
43161;BME280;40968;52.342;5.528;2024-02-23T12:05:55;98525.09;;;4.29;77.59
43161;BME280;40968;52.342;5.528;2024-02-23T12:08:24;98910.22;;;6.47;77.45
43161;BME280;40968;52.342;5.528;2024-02-23T12:10:52;98769.59;;;5.61;77.62
43161;BME280;40968;52.342;5.528;2024-02-23T12:13:19;98829.38;;;5.98;77.73
43161;BME280;40968;52.342;5.528;2024-02-23T12:15:46;98779.16;;;5.74;77.41
43161;BME280;40968;52.342;5.528;2024-02-23T12:18:13;98993.16;;;6.93;77.07
43161;BME280;40968;52.342;5.528;2024-02-23T12:20:39;98990.50;;;6.93;77.71
43161;BME280;40968;52.342;5.528;2024-02-23T12:23:06;98992.44;;;6.91;77.19
43161;BME280;40968;52.342;5.528;2024-02-23T12:25:36;98984.44;;;6.91;77.22
43161;BME280;40968;52.342;5.528;2024-02-23T12:28:03;98900.38;;;6.38;77.27
43161;BME280;40968;52.342;5.528;2024-02-23T12:30:33;98993.75;;;6.97;76.97
43161;BME280;40968;52.342;5.528;2024-02-23T12:33:03;98898.16;;;6.43;77.11
43161;BME280;40968;52.342;5.528;2024-02-23T12:35:30;98908.81;;;6.53;77.18
43161;BME280;40968;52.342;5.528;2024-02-23T12:37:57;98888.63;;;6.41;77.21
43161;BME280;40968;52.342;5.528;2024-02-23T12:40:23;98992.19;;;7.04;77.20
43161;BME280;40968;52.342;5.528;2024-02-23T12:42:51;99000.91;;;7.06;77.38
43161;BME280;40968;52.342;5.528;2024-02-23T12:45:18;98662.53;;;5.09;77.31
43161;BME280;40968;52.342;5.528;2024-02-23T12:47:44;98929.66;;;6.48;77.23
43161;BME280;40968;52.342;5.528;2024-02-23T12:50:11;98758.97;;;5.61;77.22
43161;BME280;40968;52.342;5.528;2024-02-23T12:52:38;99008.63;;;7.09;76.96
43161;BME280;40968;52.342;5.528;2024-02-23T12:55:04;98917.19;;;6.39;76.91
43161;BME280;40968;52.342;5.528;2024-02-23T12:57:31;98921.59;;;6.59;76.69
43161;BME280;40968;52.342;5.528;2024-02-23T12:59:59;98961.34;;;7.02;76.30
43161;BME280;40968;52.342;5.528;2024-02-23T13:02:25;98986.94;;;7.34;76.60
43161;BME280;40968;52.342;5.528;2024-02-23T13:04:52;99021.88;;;7.70;74.77
43161;BME280;40968;52.342;5.528;2024-02-23T13:07:19;98993.66;;;7.67;74.75
43161;BME280;40968;52.342;5.528;2024-02-23T13:09:45;98947.66;;;7.55;74.30